Terminal Aerodrome Forecast
Issued by NWS Tuscon, AZ

Home | Current Version | Previous Version | Text Only | Print | Product List | Glossary On
Versions: 1 2 3 4 5 6 7 8 9 10 11 12 13
000
FTUS45 KTWC 292300
TAFTUS
TAF
KTUS 292334Z 3000/3024 01005KT P6SM VCSH SCT070 OVC100
     FM300300 06007KT P6SM -SHRA BKN050 OVC080
     FM300900 12011KT P6SM -SHRA SCT035 OVC050
     FM301400 12014G22KT P6SM -SHRA SCT025 OVC040=

USA.gov is the U.S. government's official web portal to all federal, state and local government web resources and services.